Flight Track Log - Related Links

Times and Time Zones

All times are in EDT time to prevent confusion due to time zone crossing. See the RPA3242 flight status page for this flight to view local times or setup timezone preferences in your user account.

Time Position Orientation Groundspeed Altitude Reporting Facility
EDT Latitude Longitude Course Direction KTS MPH feet Rate Location/Type
Wed 06:27:12 PM 42.2017 -83.3583 90° East 155 178 1,200  Level Cleveland Center
Wed 06:28:07 PM 42.1558 -83.3533 175° South 215 247 2,500 2,172 Climbing Cleveland Center
Wed 06:29:08 PM 42.0914 -83.3422 173° South 243 280 5,400 2,537 Climbing Cleveland Center
Wed 06:30:00 PM 42.2167 -82.8310 90° East  Level FlightAware Approximate
Wed 06:30:10 PM 42.0581 -83.2569 118° Southeast 322 371 7,700  Level Cleveland Center
Wed 06:31:00 PM 42.2167 -82.7001 90° East  Level FlightAware Approximate
Wed 06:31:33 PM 42.0928 -83.0989 73° East 327 376 10,900  Level Cleveland Center
Wed 06:32:00 PM 42.2167 -82.5691 90° East  Level FlightAware Approximate
Wed 06:32:33 PM 42.1208 -82.9656 74° East 334 384 12,600  Level Cleveland Center
Wed 06:33:33 PM 42.1486 -82.8208 75° East 367 422 14,500 2,000 Climbing Cleveland Center
Wed 06:34:33 PM 42.1558 -82.6642 86° East 407 468 16,600 2,050 Climbing Cleveland Center
Wed 06:35:33 PM 42.0958 -82.5222 120° Southeast 406 467 18,600 2,050 Climbing Cleveland Center
Wed 06:36:33 PM 42.0314 -82.3722 120° Southeast 418 481 20,700 1,900 Climbing Cleveland Center
Wed 06:37:33 PM 41.9711 -82.2225 118° Southeast 439 505 22,400 1,700 Climbing Cleveland Center
Wed 06:38:33 PM 41.9044 -82.0731 121° Southeast 453 521 24,100 1,700 Climbing Cleveland Center
Wed 06:39:33 PM 41.8397 -81.9181 119° Southeast 463 533 25,800 1,450 Climbing Cleveland Center
Wed 06:40:33 PM 41.7744 -81.7664 120° Southeast 469 540 27,000 1,050 Climbing Cleveland Center
Wed 06:41:33 PM 41.7072 -81.6067 119° Southeast 480 552 27,900 950 Climbing Cleveland Center
Wed 06:42:33 PM 41.6481 -81.4611 119° Southeast 490 564 28,900 1,250 Climbing Cleveland Center
Wed 06:43:33 PM 41.5803 -81.3050 120° Southeast 490 564 30,400 1,050 Climbing Cleveland Center
Wed 06:44:33 PM 41.5189 -81.1433 117° Southeast 490 564 31,000 300 Climbing Cleveland Center
Wed 06:45:33 PM 41.4967 -80.9547 99° East 490 564 31,000  Level Cleveland Center
Wed 06:46:33 PM 41.4825 -80.7661 96° East 500 575 31,000  Level Cleveland Center
Wed 06:47:33 PM 41.4658 -80.5747 97° East 510 587 31,000  Level Cleveland Center
Wed 06:48:33 PM 41.4492 -80.3864 97° East 510 587 31,000 -450 Level Cleveland Center
Wed 06:49:33 PM 41.4297 -80.1956 98° East 515 593 30,100 -1,200 Descending Cleveland Center
Wed 06:50:33 PM 41.4125 -80.0100 97° East 515 593 28,600 -1,550 Descending Cleveland Center
Wed 06:51:33 PM 41.3903 -79.8053 98° East 515 593 27,000 -1,600 Descending Cleveland Center
Wed 06:52:33 PM 41.3767 -79.6367 96° East 510 587 25,400 -2,100 Descending Cleveland Center
Wed 06:53:33 PM 41.3564 -79.4628 99° East 497 572 22,800 -2,600 Descending Cleveland Center
Wed 06:54:33 PM 41.3375 -79.2778 98° East 472 543 20,200 -2,650 Descending Cleveland Center
Wed 06:55:33 PM 41.3189 -79.1042 98° East 472 543 17,500 -1,600 Descending Cleveland Center
Wed 06:56:33 PM 41.2978 -78.9414 100° East 462 532 17,000 -250 Descending Cleveland Center
Wed 06:57:33 PM 41.2686 -78.7903 104° East 462 532 17,000  Level Cleveland Center
Wed 06:58:33 PM 41.2367 -78.6364 105° East 455 524 17,000 -34 Level Cleveland Center
Wed 07:00:31 PM 41.1739 -78.3381 106° East 441 507 16,900 -34 Descending New York Center
Wed 07:01:31 PM 41.1419 -78.1858 106° East 441 507 16,900 50 Level New York Center
Wed 07:02:31 PM 41.1097 -78.0333 106° East 436 502 17,000 51 Climbing New York Center
Wed 07:03:29 PM 41.0772 -77.8814 106° East 436 502 17,000  Level New York Center
Wed 07:04:29 PM 41.0425 -77.7289 107° East 436 502 17,000 -50 Level New York Center
Wed 07:05:30 PM 41.0097 -77.5744 106° East 436 502 16,900 -49 Descending New York Center
Wed 07:06:31 PM 40.9767 -77.4225 106° East 436 502 16,900  Level New York Center
Wed 07:07:31 PM 40.9433 -77.2708 106° East 431 496 16,900  Level New York Center
Wed 07:08:29 PM 40.9078 -77.1192 107° East 431 496 16,900  Level New York Center
Wed 07:09:31 PM 40.8728 -76.9539 106° East 431 496 16,900 -393 Level New York Center
Wed 07:10:31 PM 40.8425 -76.8167 106° East 431 496 16,100 -1,041 Descending New York Center
Wed 07:11:32 PM 40.8081 -76.6683 107° East 431 496 14,800 -1,311 Descending New York Center
Wed 07:12:30 PM 40.7722 -76.5092 107° East 426 490 13,500 -1,271 Descending New York Center
Wed 07:13:30 PM 40.7431 -76.3806 107° East 414 476 12,300 -1,250 Descending New York Center
Wed 07:14:30 PM 40.7047 -76.2158 107° East 415 478 11,000 -645 Descending New York Center
Wed 07:15:31 PM 40.6736 -76.0767 106° East 408 470 11,000  Level New York Center
Wed 07:16:31 PM 40.6419 -75.9428 107° East 408 470 11,000  Level New York Center
Wed 07:17:29 PM 40.5978 -75.8139 114° Southeast 408 470 11,000  Level New York Center
Wed 07:18:29 PM 40.5414 -75.6675 117° Southeast 398 458 11,000 -500 Level New York Center
Wed 07:19:29 PM 40.4981 -75.5500 116° Southeast 403 464 10,000 -496 Descending New York Center
Wed 07:20:30 PM 40.4397 -75.4506 128° Southeast 369 425 10,000 -541 Level New York Center
Wed 07:21:31 PM 40.3586 -75.3878 149° Southeast 341 392 8,900 -1,412 Descending New York Center
Wed 07:22:29 PM 40.2717 -75.3219 150° Southeast 329 379 7,200 -1,475 Descending New York Center
Wed 07:23:29 PM 40.1897 -75.2867 162° South 318 366 6,000 -590 Descending New York Center
Wed 07:24:31 PM 40.1222 -75.2525 159° South 285 328 6,000  Level New York Center
Wed 07:25:30 PM 40.0692 -75.2247 158° South 242 278 6,000  Level New York Center
Wed 07:26:30 PM 40.0061 -75.1800 151° Southeast 234 269 6,000 -198 Level New York Center
Wed 07:27:31 PM 40.0111 -75.1017 85° East 211 243 5,600 -500 Descending New York Center
Wed 07:28:30 PM 40.0333 -75.0000 74° East 236 272 5,000 -403 Descending Philadelphia TRACON
Wed 07:29:30 PM 40.0333 -74.9167 90° East 233 268 4,800 -472 Descending Philadelphia TRACON
Wed 07:30:37 PM 39.9667 -74.9167 180° South 167 192 4,000 -397 Descending Philadelphia TRACON
Wed 07:31:31 PM 39.9500 -74.9500 237° Southwest 154 177 4,000 -263 Level Philadelphia TRACON
Wed 07:32:31 PM 39.9167 -74.9833 217° Southwest 141 162 3,500 -600 Descending Philadelphia TRACON
Wed 07:33:31 PM 39.9167 -75.0333 270° West 142 163 2,800 -750 Descending Philadelphia TRACON
Wed 07:34:31 PM 39.9000 -75.1000 252° West 152 175 2,000 -850 Descending Philadelphia TRACON
Wed 07:35:31 PM 39.8833 -75.1500 247° West 159 183 1,100 -789 Descending Philadelphia TRACON
Wed 07:36:25 PM 39.8833 -75.2000 270° West 133 153 500 -667 Descending Philadelphia TRACON

Login

Don't have an account? Register now (free) for customized features, flight alerts, and more!